Afton, Tennessee
Current Conditions -  °F | °C
As of 9:53 PM on Tuesday 21 Oct 2014 (Local Time) from KTRI Reporting Station
Broken Clouds Broken Clouds  
Wind Chill: 50°   Ceiling: 5000
Heat Index: 50°   Visibility: 10mi
Dew Point: 38°   Wind: 6mph
Humidity: 63%   Direction: 350°N
Pressure: 30.09"   Gusts: NA
Location:  36.19°N, 82.74°W
Report Text: KTRI 220153Z 35005KT 10SM BKN050 10/03 A3009 RMK AO2 SLP177 T01000033
Loading
Personal Weather Stations






























Interactive Weather Map
Tropical Storm Tracking
New forecast layout! Learn more

10-Day Weather Forecast

Advertisements
Track Severe Weather on mobile